Aérodrome :
LOGIN :

S'inscrire | Disclaimer

   EN    FR    IT 

 










Légende :    VFR   VFR Marginal   IFR   IFR Intensif   IFR Très Intensif
Visi : 
Plafond : 
>= 8 km
>= 3000ft
5 à 8 km
1000 à 3000 ft
1500m à 5 km
500 à 1000 ft
800 à 1500m
200 à 500 ft
< 800m
< 200 ft
Symboles :   Orages  Brouillard  Fortes neiges  Fortes précipitations  Vent > 20 kt
SIGMETs :   Divers  Orages  Givrage  Turbulence  Onde Orograph.  Cendres Volcan.






- Altitude de l'aérodrome : 209 ft
- Code IATA : CLY


LFKC - Calvi

DERNIER METAR :
  • 110430Z AUTO VRB02KT 5000 -RA BR FEW019/// SCT037/// BKN060/// ///CB 16/15 Q1010 TEMPO 23015G25KT 2000 TSRA BKN010 BKN040CB

METARs EXPIRÉS :
  • 110400Z AUTO VRB02KT 5000 -RA BR SCT017/// BKN024/// BKN044/// ///TCU 16/16 Q1010 TEMPO 23015G25KT 2000 TSRA BKN010 BKN040CB
  • 110330Z AUTO 34005KT 290V020 6000 -RA FEW005/// BKN022/// BKN030/// ///CB 16/16 Q1011 TEMPO 23015G25KT 2000 TSRA BKN010 BKN040CB
  • 110300Z AUTO 32004KT 270V010 5000 -RA BR FEW004 SCT025 BKN076 16/16 Q1011
  • 110230Z AUTO VRB03KT 7000 -RA FEW005/// SCT027/// BKN094/// ///CB 16/16 Q1012
  • 110200Z AUTO 07003KT 040V110 4100 RA BR SCT038/// BKN046/// BKN056/// ///CB 17/16 Q1012

TAF TAF LFKC
Valide du 11 à 03h jusqu'au 12 à 03h UTC


110200Z 1103/1203 VRB05KT 9999 BKN040 TX28/1112Z TN15/1104Z
TEMPO 1103/1113 23015G25KT 2000 TSRA BKN010 BKN040CB
BECMG 1113/1115 21012G22KT
TEMPO 1116/1120 4000 TSRA BKN010 FEW040CB
ATIS : +33 4 95 65 82 49



MET'MAP, la Météo Aéronautique d'un coup d'oeil ! - Copyright ORBIFLY Décembre 2007 - Disclaimer

ORBIFLY MET'MAP TEAM :

Programmation & Développement : Alexandra Zaïnal
Sur une idée originale de : Baudouin d'Aumeries
Assistance à la programmation : Marc-Olivier Méhu
Soutien technique & logistique : Manuel Goepfert

Contact : metmap@orbifly.com




SOURCES & CREDITS :

   NOAA